createdAt,value
2022-10-22T00:00:15.294Z,97903.51
2022-10-22T00:02:45.127Z,97894.13
2022-10-22T00:05:12.663Z,97887.91
2022-10-22T00:07:40.758Z,97891.47
2022-10-22T00:10:09.315Z,97903.38
2022-10-22T00:12:38.388Z,97903.66
2022-10-22T00:15:07.703Z,97899.41
2022-10-22T00:17:35.728Z,97907.02
2022-10-22T00:20:04.918Z,97900.86
2022-10-22T00:22:33.471Z,97899.61
2022-10-22T00:25:01.010Z,97902.87
2022-10-22T00:27:28.727Z,97904.56
2022-10-22T00:29:56.331Z,97903.32
2022-10-22T00:32:23.839Z,97909.55
2022-10-22T00:34:51.470Z,97903.15
2022-10-22T00:37:19.140Z,97892.45
2022-10-22T00:39:46.717Z,97888.27
2022-10-22T00:42:23.774Z,97887.27
2022-10-22T00:45:15.377Z,97883.25
2022-10-22T00:47:54.328Z,97879.55
2022-10-22T00:50:33.298Z,97884.48
2022-10-22T00:53:02.908Z,97882.37
2022-10-22T00:55:32.815Z,97884.83
2022-10-22T00:58:02.130Z,97888.32
2022-10-22T01:00:30.375Z,97889.11
2022-10-22T01:02:59.266Z,97879.41
2022-10-22T01:05:31.786Z,97877.50
2022-10-22T01:08:02.946Z,97878.33
2022-10-22T01:10:45.532Z,97876.73
2022-10-22T01:13:30.732Z,97871.34
2022-10-22T01:16:11.482Z,97865.95
2022-10-22T01:19:13.368Z,97867.30
2022-10-22T01:21:49.185Z,97865.98
2022-10-22T01:24:42.090Z,97874.14
2022-10-22T01:28:04.497Z,97873.34
2022-10-22T01:30:40.095Z,97867.13
2022-10-22T01:33:13.147Z,97866.53
2022-10-22T01:35:45.952Z,97869.96
2022-10-22T01:38:19.482Z,97859.36
2022-10-22T01:40:51.565Z,97861.92
2022-10-22T01:43:23.526Z,97865.59
2022-10-22T01:46:02.391Z,97858.19
2022-10-22T01:49:10.777Z,97851.02
2022-10-22T01:51:56.010Z,97841.16
2022-10-22T01:54:40.242Z,97831.29
2022-10-22T01:57:31.463Z,97830.89
2022-10-22T02:00:09.555Z,97838.64
2022-10-22T02:02:51.453Z,97838.24
2022-10-22T02:05:47.076Z,97831.98
2022-10-22T02:08:24.568Z,97840.31
2022-10-22T02:10:53.545Z,97847.06
2022-10-22T02:13:43.077Z,97838.97
2022-10-22T02:16:18.830Z,97834.13
2022-10-22T02:18:50.041Z,97834.91
2022-10-22T02:21:18.059Z,97834.91
2022-10-22T02:23:46.351Z,97837.13
2022-10-22T02:26:33.940Z,97839.08
2022-10-22T02:29:15.504Z,97840.42
2022-10-22T02:31:46.491Z,97839.32
2022-10-22T02:34:19.535Z,97835.27
2022-10-22T02:36:50.366Z,97835.63
2022-10-22T02:39:20.690Z,97836.73
2022-10-22T02:41:48.938Z,97825.45
2022-10-22T02:44:20.488Z,97825.45
2022-10-22T02:46:48.426Z,97823.59
2022-10-22T02:49:16.355Z,97818.27
2022-10-22T02:51:43.859Z,97822.84
2022-10-22T02:54:11.286Z,97823.39
2022-10-22T02:56:38.648Z,97817.44
2022-10-22T02:59:06.286Z,97816.16
2022-10-22T03:01:33.986Z,97803.03
2022-10-22T03:04:01.528Z,97808.98
2022-10-22T03:06:29.197Z,97805.73
2022-10-22T03:08:56.765Z,97805.97
2022-10-22T03:11:24.407Z,97807.39
2022-10-22T03:13:51.963Z,97801.20
2022-10-22T03:16:19.491Z,97797.40
2022-10-22T03:18:47.215Z,97806.52
2022-10-22T03:21:38.433Z,97797.31
2022-10-22T03:24:11.337Z,97793.27
2022-10-22T03:26:41.394Z,97797.08
2022-10-22T03:29:11.414Z,97784.69
2022-10-22T03:31:38.921Z,97788.19
2022-10-22T03:34:06.349Z,97783.35
2022-10-22T03:36:33.993Z,97788.44
2022-10-22T03:39:03.982Z,97780.89
2022-10-22T03:41:31.978Z,97775.73
2022-10-22T03:44:02.031Z,97783.47
2022-10-22T03:46:29.520Z,97774.78
2022-10-22T03:48:57.114Z,97768.78
2022-10-22T03:51:27.607Z,97774.73
2022-10-22T03:53:55.501Z,97766.56
2022-10-22T03:56:23.805Z,97776.01
2022-10-22T03:58:51.395Z,97766.28
2022-10-22T04:01:19.131Z,97764.38
2022-10-22T04:03:46.984Z,97759.41
2022-10-22T04:06:14.733Z,97757.98
2022-10-22T04:08:44.208Z,97762.78
2022-10-22T04:11:13.580Z,97759.29
2022-10-22T04:13:42.131Z,97767.07
2022-10-22T04:16:22.622Z,97768.94
2022-10-22T04:18:51.411Z,97778.14
2022-10-22T04:21:19.939Z,97776.52
2022-10-22T04:23:50.584Z,97777.34
2022-10-22T04:26:19.445Z,97774.65
2022-10-22T04:28:48.996Z,97774.57
2022-10-22T04:31:23.268Z,97770.23
2022-10-22T04:33:56.355Z,97764.28
2022-10-22T04:36:25.569Z,97759.97
2022-10-22T04:38:57.659Z,97759.48
2022-10-22T04:41:33.289Z,97763.02
2022-10-22T04:44:01.237Z,97760.95
2022-10-22T04:46:31.848Z,97763.66
2022-10-22T04:49:00.192Z,97761.23
2022-10-22T04:51:28.091Z,97756.64
2022-10-22T04:53:55.752Z,97763.66
2022-10-22T04:56:26.829Z,97762.30
2022-10-22T04:58:58.594Z,97766.83
2022-10-22T05:01:31.179Z,97769.25
2022-10-22T05:04:01.625Z,97763.02
2022-10-22T05:06:31.483Z,97765.20
2022-10-22T05:09:03.940Z,97766.23
2022-10-22T05:11:35.863Z,97758.61
2022-10-22T05:14:07.187Z,97762.94
2022-10-22T05:16:37.474Z,97761.83
2022-10-22T05:19:06.520Z,97766.63
2022-10-22T05:21:34.814Z,97757.41
2022-10-22T05:24:03.436Z,97757.89
2022-10-22T05:26:30.990Z,97759.98
2022-10-22T05:28:58.501Z,97758.03
2022-10-22T05:31:27.929Z,97756.92
2022-10-22T05:33:55.740Z,97761.48
2022-10-22T05:36:23.619Z,97765.53
2022-10-22T05:38:51.604Z,97764.42
2022-10-22T05:41:22.603Z,97762.20
2022-10-22T05:43:51.396Z,97761.84
2022-10-22T05:46:23.020Z,97759.87
2022-10-22T05:48:53.423Z,97757.41
2022-10-22T05:51:22.256Z,97763.33
2022-10-22T05:53:55.996Z,97763.80
2022-10-22T05:56:24.469Z,97767.62
2022-10-22T05:58:52.399Z,97767.80
2022-10-22T06:01:27.895Z,97768.84
2022-10-22T06:03:59.108Z,97773.88
2022-10-22T06:06:51.599Z,97775.36
2022-10-22T06:09:29.304Z,97770.63
2022-10-22T06:11:58.317Z,97778.78
2022-10-22T06:14:27.523Z,97776.22
2022-10-22T06:16:55.502Z,97775.23
2022-10-22T06:19:25.526Z,97780.19
2022-10-22T06:21:53.473Z,97775.70
2022-10-22T06:24:21.159Z,97771.51
2022-10-22T06:26:52.219Z,97779.48
2022-10-22T06:29:19.782Z,97782.92
2022-10-22T06:31:47.526Z,97779.05
2022-10-22T06:34:17.927Z,97778.98
2022-10-22T06:36:46.381Z,97781.55
2022-10-22T06:39:16.416Z,97781.97
2022-10-22T06:41:44.276Z,97783.12
2022-10-22T06:44:15.426Z,97778.12
2022-10-22T06:46:43.707Z,97778.53
2022-10-22T06:49:16.662Z,97776.80
2022-10-22T06:51:44.642Z,97776.91
2022-10-22T06:54:12.506Z,97778.73
2022-10-22T06:56:40.328Z,97776.67
2022-10-22T06:59:08.075Z,97775.11
2022-10-22T07:01:36.601Z,97775.45
2022-10-22T07:04:05.946Z,97783.52
2022-10-22T07:06:33.429Z,97791.41
2022-10-22T07:09:01.461Z,97786.08
2022-10-22T07:11:34.736Z,97778.70
2022-10-22T07:14:02.281Z,97768.48
2022-10-22T07:16:32.539Z,97768.66
2022-10-22T07:19:02.103Z,97762.73
2022-10-22T07:21:30.836Z,97773.62
2022-10-22T07:23:59.319Z,97770.67
2022-10-22T07:26:30.193Z,97765.56
2022-10-22T07:28:58.840Z,97764.30
2022-10-22T07:31:26.601Z,97759.87
2022-10-22T07:33:54.253Z,97754.52
2022-10-22T07:36:21.718Z,97746.66
2022-10-22T07:38:54.064Z,97758.16
2022-10-22T07:41:23.285Z,97758.56
2022-10-22T07:43:51.343Z,97759.27
2022-10-22T07:46:19.877Z,97765.00
2022-10-22T07:48:47.464Z,97775.45
2022-10-22T07:51:15.670Z,97767.55
2022-10-22T07:53:43.279Z,97768.95
2022-10-22T07:56:10.953Z,97756.29
2022-10-22T07:58:38.037Z,97755.17
2022-10-22T08:01:05.811Z,97753.61
2022-10-22T08:03:34.139Z,97753.50
2022-10-22T08:06:02.729Z,97757.70
2022-10-22T08:08:30.947Z,97763.14
2022-10-22T08:11:01.475Z,97763.73
2022-10-22T08:13:30.264Z,97758.16
2022-10-22T08:16:00.135Z,97772.23
2022-10-22T08:18:28.492Z,97792.00
2022-10-22T08:20:57.065Z,97780.18
2022-10-22T08:23:27.577Z,97776.09
2022-10-22T08:25:54.892Z,97774.73
2022-10-22T08:28:22.961Z,97775.31
2022-10-22T08:30:50.413Z,97771.20
2022-10-22T08:33:20.028Z,97771.53
2022-10-22T08:35:49.833Z,97765.16
2022-10-22T08:38:18.487Z,97769.78
2022-10-22T08:40:52.733Z,97768.95
2022-10-22T08:44:02.331Z,97766.62
2022-10-22T08:46:52.205Z,97775.91
2022-10-22T08:49:27.883Z,97784.15
2022-10-22T08:51:57.893Z,97781.94
2022-10-22T08:54:39.652Z,97782.36
2022-10-22T08:57:29.182Z,97791.61
2022-10-22T09:00:08.406Z,97783.27
2022-10-22T09:03:08.979Z,97782.64
2022-10-22T09:05:46.505Z,97784.77
2022-10-22T09:08:17.077Z,97786.45
2022-10-22T09:10:49.253Z,97780.89
2022-10-22T09:13:20.753Z,97772.32
2022-10-22T09:15:56.458Z,97777.16
2022-10-22T09:19:04.157Z,97775.58
2022-10-22T09:21:43.181Z,97780.63
2022-10-22T09:24:42.035Z,97773.45
2022-10-22T09:27:16.591Z,97771.28
2022-10-22T09:29:47.080Z,97770.98
2022-10-22T09:32:16.920Z,97765.00
2022-10-22T09:34:47.554Z,97761.25
2022-10-22T09:37:19.374Z,97761.81
2022-10-22T09:39:52.982Z,97758.02
2022-10-22T09:42:21.531Z,97749.84
2022-10-22T09:44:56.581Z,97746.69
2022-10-22T09:50:42.755Z,97752.91
2022-10-22T09:53:29.290Z,97756.50
2022-10-22T09:56:00.905Z,97758.39
2022-10-22T09:58:28.401Z,97755.37
2022-10-22T10:01:01.168Z,97755.88
2022-10-22T10:03:35.578Z,97759.53
2022-10-22T10:06:06.020Z,97757.22
2022-10-22T10:08:34.094Z,97757.44
2022-10-22T10:11:07.189Z,97750.72
2022-10-22T10:13:54.931Z,97751.30
2022-10-22T10:16:51.270Z,97756.64
2022-10-22T10:19:42.782Z,97747.66
2022-10-22T10:22:42.372Z,97747.28
2022-10-22T10:25:35.717Z,97747.44
2022-10-22T10:28:30.143Z,97736.28
2022-10-22T10:31:23.047Z,97732.69
2022-10-22T10:34:11.219Z,97735.34
2022-10-22T10:37:01.847Z,97725.67
2022-10-22T10:40:03.315Z,97729.65
2022-10-22T10:42:42.147Z,97734.33
2022-10-22T10:45:30.034Z,97730.88
2022-10-22T10:48:50.640Z,97730.11
2022-10-22T10:51:38.773Z,97732.56
2022-10-22T10:54:35.451Z,97721.59
2022-10-22T10:57:10.967Z,97720.00
2022-10-22T11:00:04.576Z,97719.98
2022-10-22T11:03:10.923Z,97718.49
2022-10-22T11:05:54.609Z,97717.19
2022-10-22T11:08:32.899Z,97716.00
2022-10-22T11:11:08.966Z,97719.27
2022-10-22T11:13:53.199Z,97720.38
2022-10-22T11:16:36.195Z,97716.95
2022-10-22T11:19:46.070Z,97716.16
2022-10-22T11:22:31.904Z,97711.03
2022-10-22T11:25:17.128Z,97703.62
2022-10-22T11:28:10.362Z,97694.22
2022-10-22T11:30:37.992Z,97696.05
2022-10-22T11:33:16.458Z,97689.30
2022-10-22T11:35:46.201Z,97693.29
2022-10-22T11:38:18.332Z,97689.76
2022-10-22T11:41:00.276Z,97683.48
2022-10-22T11:43:32.587Z,97688.64
2022-10-22T11:46:17.343Z,97684.25
2022-10-22T11:48:48.644Z,97683.48
2022-10-22T11:51:37.145Z,97682.75
2022-10-22T11:54:40.352Z,97680.84
2022-10-22T11:57:21.452Z,97679.36
2022-10-22T12:00:00.845Z,97670.05
2022-10-22T12:02:42.466Z,97671.08
2022-10-22T12:05:28.048Z,97673.82
2022-10-22T12:08:11.163Z,97668.53
2022-10-22T12:11:04.577Z,97663.28
2022-10-22T12:13:54.026Z,97666.50
2022-10-22T12:16:54.712Z,97671.65
2022-10-22T12:19:15.269Z,97664.24
2022-10-22T12:21:48.052Z,97650.09
2022-10-22T12:24:19.980Z,97646.11
2022-10-22T12:26:49.406Z,97649.20
2022-10-22T12:29:17.125Z,97652.89
2022-10-22T12:31:46.903Z,97644.03
2022-10-22T12:34:18.402Z,97638.55
2022-10-22T12:36:49.238Z,97631.91
2022-10-22T12:39:21.331Z,97633.88
2022-10-22T12:41:48.930Z,97635.24
2022-10-22T12:44:18.067Z,97628.39
2022-10-22T12:46:48.030Z,97638.42
2022-10-22T12:49:20.273Z,97636.47
2022-10-22T12:51:49.056Z,97634.11
2022-10-22T12:54:30.953Z,97638.58
2022-10-22T12:56:58.825Z,97636.63
2022-10-22T12:59:34.498Z,97642.50
2022-10-22T13:02:07.862Z,97634.03
2022-10-22T13:04:36.824Z,97640.84
2022-10-22T13:07:19.929Z,97640.41
2022-10-22T13:10:01.134Z,97640.52
2022-10-22T13:12:35.789Z,97641.05
2022-10-22T13:15:29.656Z,97638.06
2022-10-22T13:18:22.178Z,97642.33
2022-10-22T13:21:02.665Z,97648.16
2022-10-22T13:23:33.438Z,97650.23
2022-10-22T13:26:14.366Z,97655.33
2022-10-22T13:28:43.141Z,97643.13
2022-10-22T13:31:20.854Z,97641.95
2022-10-22T13:33:59.487Z,97642.88
2022-10-22T13:36:28.119Z,97649.92
2022-10-22T13:38:55.730Z,97640.47
2022-10-22T13:41:27.394Z,97639.48
2022-10-22T13:43:55.341Z,97642.18
2022-10-22T13:46:25.940Z,97638.22
2022-10-22T13:48:55.914Z,97632.89
2022-10-22T13:51:31.411Z,97640.91
2022-10-22T13:53:59.058Z,97633.06
2022-10-22T13:56:26.594Z,97637.33
2022-10-22T13:58:54.079Z,97638.50
2022-10-22T14:01:28.337Z,97635.12
2022-10-22T14:04:01.347Z,97643.73
2022-10-22T14:06:32.058Z,97634.47
2022-10-22T14:09:04.265Z,97632.80
2022-10-22T14:11:32.244Z,97630.59
2022-10-22T14:13:59.721Z,97628.38
2022-10-22T14:16:31.846Z,97627.34
2022-10-22T14:19:00.877Z,97631.39
2022-10-22T14:21:35.337Z,97629.97
2022-10-22T14:24:04.485Z,97627.99
2022-10-22T14:26:34.459Z,97622.25
2022-10-22T14:29:11.412Z,97624.94
2022-10-22T14:31:32.567Z,97622.92
2022-10-22T14:33:59.901Z,97624.23
2022-10-22T14:36:27.743Z,97623.19
2022-10-22T14:38:55.508Z,97628.41
2022-10-22T14:41:25.778Z,97619.31
2022-10-22T14:43:54.898Z,97620.62
2022-10-22T14:46:22.806Z,97625.25
2022-10-22T14:48:50.426Z,97620.44
2022-10-22T14:51:20.788Z,97615.21
2022-10-22T14:53:48.676Z,97616.31
2022-10-22T14:56:20.904Z,97613.89
2022-10-22T14:58:49.532Z,97605.55
2022-10-22T15:01:17.451Z,97615.00
2022-10-22T15:03:44.937Z,97609.18
2022-10-22T15:06:12.479Z,97605.97
2022-10-22T15:08:40.130Z,97599.98
2022-10-22T15:11:11.766Z,97604.91
2022-10-22T15:13:40.789Z,97599.30
2022-10-22T15:16:11.236Z,97602.13
2022-10-22T15:18:38.814Z,97601.77
2022-10-22T15:21:19.840Z,97598.08
2022-10-22T15:23:49.022Z,97599.87
2022-10-22T15:26:17.328Z,97607.92
2022-10-22T15:28:44.860Z,97606.06
2022-10-22T15:31:14.313Z,97592.61
2022-10-22T15:33:43.719Z,97593.83
2022-10-22T15:36:14.985Z,97604.59
2022-10-22T15:38:42.491Z,97600.70
2022-10-22T15:41:12.980Z,97596.69
2022-10-22T15:43:40.470Z,97596.89
2022-10-22T15:46:18.092Z,97592.17
2022-10-22T15:48:46.178Z,97593.61
2022-10-22T15:51:17.475Z,97595.02
2022-10-22T15:53:54.728Z,97600.55
2022-10-22T15:56:24.154Z,97606.28
2022-10-22T15:59:03.591Z,97596.73
2022-10-22T16:01:33.972Z,97602.34
2022-10-22T16:04:04.543Z,97594.41
2022-10-22T16:06:39.844Z,97600.93
2022-10-22T16:09:10.533Z,97598.69
2022-10-22T16:11:39.521Z,97596.44
2022-10-22T16:14:09.929Z,97601.47
2022-10-22T16:16:42.118Z,97597.29
2022-10-22T16:19:12.675Z,97598.66
2022-10-22T16:21:40.168Z,97587.53
2022-10-22T16:24:09.395Z,97597.50
2022-10-22T16:26:37.014Z,97586.59
2022-10-22T16:29:06.769Z,97594.86
2022-10-22T16:31:34.402Z,97593.02
2022-10-22T16:34:02.463Z,97591.05
2022-10-22T16:36:30.061Z,97598.38
2022-10-22T16:38:57.752Z,97591.28
2022-10-22T16:41:28.062Z,97593.09
2022-10-22T16:43:55.544Z,97590.13
2022-10-22T16:46:23.458Z,97584.37
2022-10-22T16:48:53.387Z,97587.47
2022-10-22T16:51:24.971Z,97582.14
2022-10-22T16:53:54.701Z,97584.87
2022-10-22T16:56:23.017Z,97580.77
2022-10-22T16:58:54.155Z,97580.56
2022-10-22T17:01:28.711Z,97580.27
2022-10-22T17:04:01.279Z,97587.34
2022-10-22T17:06:29.349Z,97580.19
2022-10-22T17:08:56.992Z,97586.70
2022-10-22T17:11:25.238Z,97578.43
2022-10-22T17:13:54.426Z,97586.89
2022-10-22T17:16:24.367Z,97581.01
2022-10-22T17:18:54.099Z,97581.70
2022-10-22T17:21:22.803Z,97574.80
2022-10-22T17:23:55.025Z,97578.59
2022-10-22T17:26:23.616Z,97567.37
2022-10-22T17:28:51.085Z,97565.12
2022-10-22T17:31:25.720Z,97554.13
2022-10-22T17:33:56.008Z,97557.12
2022-10-22T17:36:25.481Z,97556.66
2022-10-22T17:38:55.907Z,97555.52
2022-10-22T17:41:27.606Z,97560.97
2022-10-22T17:43:56.798Z,97562.12
2022-10-22T17:46:27.829Z,97552.14
2022-10-22T17:48:59.089Z,97548.84
2022-10-22T17:51:28.910Z,97555.45
2022-10-22T17:53:57.101Z,97550.33
2022-10-22T17:56:27.948Z,97543.51
2022-10-22T17:58:56.430Z,97544.88
2022-10-22T18:01:30.702Z,97543.72
2022-10-22T18:04:07.648Z,97555.52
2022-10-22T18:06:35.602Z,97561.84
2022-10-22T18:09:07.770Z,97552.06
2022-10-22T18:11:37.597Z,97544.18
2022-10-22T18:14:05.306Z,97540.18
2022-10-22T18:16:32.968Z,97535.60
2022-10-22T18:19:01.310Z,97532.81
2022-10-22T18:21:30.072Z,97540.72
2022-10-22T18:23:59.017Z,97537.35
2022-10-22T18:26:27.226Z,97542.57
2022-10-22T18:28:57.247Z,97551.33
2022-10-22T18:31:27.267Z,97544.42
2022-10-22T18:33:55.687Z,97538.09
2022-10-22T18:36:26.820Z,97539.03
2022-10-22T18:39:00.332Z,97536.58
2022-10-22T18:41:30.250Z,97539.55
2022-10-22T18:44:01.777Z,97546.84
2022-10-22T18:46:31.380Z,97551.66
2022-10-22T18:48:59.064Z,97540.99
2022-10-22T18:51:32.216Z,97544.78
2022-10-22T18:54:22.106Z,97536.08
2022-10-22T18:56:30.115Z,97537.92
2022-10-22T18:58:59.513Z,97542.92
2022-10-22T19:01:29.051Z,97545.00
2022-10-22T19:03:56.924Z,97548.06
2022-10-22T19:06:34.419Z,97541.97
2022-10-22T19:09:01.278Z,97540.94
2022-10-22T19:11:28.890Z,97537.91
2022-10-22T19:13:56.595Z,97531.45
2022-10-22T19:16:24.157Z,97514.42
2022-10-22T19:19:06.272Z,97511.81
2022-10-22T19:21:33.935Z,97503.54
2022-10-22T19:24:01.920Z,97510.36
2022-10-22T19:26:30.485Z,97497.88
2022-10-22T19:28:59.536Z,97496.30
2022-10-22T19:31:29.377Z,97488.13
2022-10-22T19:33:58.885Z,97477.44
2022-10-22T19:36:28.442Z,97479.26
2022-10-22T19:38:57.543Z,97487.44
2022-10-22T19:41:27.964Z,97501.95
2022-10-22T19:43:57.332Z,97512.60
2022-10-22T19:46:27.209Z,97514.64
2022-10-22T19:48:56.495Z,97508.28
2022-10-22T19:51:29.368Z,97503.62
2022-10-22T19:54:00.837Z,97495.96
2022-10-22T19:56:28.969Z,97490.81
2022-10-22T19:58:57.286Z,97491.27
2022-10-22T20:01:25.296Z,97491.27
2022-10-22T20:03:53.623Z,97483.88
2022-10-22T20:06:21.566Z,97480.27
2022-10-22T20:08:51.126Z,97493.02
2022-10-22T20:11:25.988Z,97493.29
2022-10-22T20:13:54.095Z,97490.68
2022-10-22T20:16:24.624Z,97479.69
2022-10-22T20:18:52.858Z,97488.01
2022-10-22T20:21:21.522Z,97492.00
2022-10-22T20:23:55.824Z,97490.55
2022-10-22T20:26:25.280Z,97485.20
2022-10-22T20:28:57.272Z,97487.51
2022-10-22T20:31:27.947Z,97482.17
2022-10-22T20:33:58.275Z,97484.55
2022-10-22T20:36:28.334Z,97471.77
2022-10-22T20:39:05.248Z,97468.70
2022-10-22T20:41:34.818Z,97481.89
2022-10-22T20:44:02.119Z,97479.86
2022-10-22T20:46:32.971Z,97472.05
2022-10-22T20:49:07.803Z,97471.02
2022-10-22T20:51:37.612Z,97479.43
2022-10-22T20:54:06.990Z,97473.20
2022-10-22T20:56:40.055Z,97469.89
2022-10-22T20:59:10.345Z,97465.67
2022-10-22T21:01:51.268Z,97468.48
2022-10-22T21:04:21.146Z,97469.16
2022-10-22T21:06:49.843Z,97480.73
2022-10-22T21:09:17.382Z,97470.05
2022-10-22T21:11:45.529Z,97467.55
2022-10-22T21:14:18.535Z,97474.31
2022-10-22T21:16:49.451Z,97485.20
2022-10-22T21:19:19.412Z,97481.13
2022-10-22T21:21:47.131Z,97488.60
2022-10-22T21:24:15.034Z,97491.75
2022-10-22T21:26:43.386Z,97489.03
2022-10-22T21:29:13.085Z,97481.53
2022-10-22T21:31:40.694Z,97493.00
2022-10-22T21:34:08.063Z,97489.28
2022-10-22T21:36:35.433Z,97470.89
2022-10-22T21:39:03.165Z,97478.18
2022-10-22T21:41:30.795Z,97487.73
2022-10-22T21:43:59.227Z,97487.30
2022-10-22T21:46:28.198Z,97490.28
2022-10-22T21:49:01.346Z,97495.77
2022-10-22T21:51:32.416Z,97490.55
2022-10-22T21:53:59.900Z,97489.66
2022-10-22T21:56:32.207Z,97487.66
2022-10-22T21:59:02.198Z,97479.03
2022-10-22T22:01:30.138Z,97480.53
2022-10-22T22:03:58.547Z,97471.90
2022-10-22T22:06:30.866Z,97470.80
2022-10-22T22:08:58.386Z,97472.63
2022-10-22T22:11:28.068Z,97480.47
2022-10-22T22:13:57.275Z,97482.05
2022-10-22T22:16:29.637Z,97487.06
2022-10-22T22:19:00.305Z,97483.88
2022-10-22T22:21:29.272Z,97487.97
2022-10-22T22:23:58.140Z,97491.05
2022-10-22T22:26:29.867Z,97485.25
2022-10-22T22:28:59.301Z,97487.06
2022-10-22T22:31:33.494Z,97490.01
2022-10-22T22:34:07.680Z,97498.86
2022-10-22T22:36:41.622Z,97502.39
2022-10-22T22:39:13.668Z,97503.19
2022-10-22T22:41:42.397Z,97504.55
2022-10-22T22:44:09.981Z,97503.40
2022-10-22T22:46:37.556Z,97503.19
2022-10-22T22:49:05.513Z,97510.56
2022-10-22T22:51:33.604Z,97512.46
2022-10-22T22:54:01.778Z,97516.47
2022-10-22T22:56:31.713Z,97512.71
2022-10-22T22:58:59.288Z,97515.89
2022-10-22T23:01:37.080Z,97510.34
2022-10-22T23:04:24.927Z,97517.86
2022-10-22T23:06:52.482Z,97516.14
2022-10-22T23:11:48.461Z,97517.52
2022-10-22T23:14:18.317Z,97516.63
2022-10-22T23:16:49.838Z,97510.28
2022-10-22T23:19:21.014Z,97516.08
2022-10-22T23:21:52.715Z,97510.28
2022-10-22T23:24:24.629Z,97512.08
2022-10-22T23:26:54.571Z,97516.05
2022-10-22T23:29:29.541Z,97508.36
2022-10-22T23:32:00.918Z,97514.23
2022-10-22T23:34:30.536Z,97514.34
2022-10-22T23:36:59.078Z,97523.63
2022-10-22T23:39:28.749Z,97533.83
2022-10-22T23:41:57.151Z,97536.98
2022-10-22T23:44:25.616Z,97543.70
2022-10-22T23:46:53.633Z,97549.03
2022-10-22T23:49:21.231Z,97552.66
2022-10-22T23:51:49.056Z,97560.59
2022-10-22T23:54:19.477Z,97553.23
2022-10-22T23:56:47.473Z,97557.31
2022-10-22T23:59:15.806Z,97557.31
